sensor_id;sensor_type;location;lat;lon;timestamp;P1;durP1;ratioP1;P2;durP2;ratioP2
66095;SDS011;53861;53.422;14.530;2022-07-23T00:02:00;30.52;;;10.15;;
66095;SDS011;53861;53.422;14.530;2022-07-23T00:04:28;26.40;;;10.23;;
66095;SDS011;53861;53.422;14.530;2022-07-23T00:06:55;24.55;;;10.45;;
66095;SDS011;53861;53.422;14.530;2022-07-23T00:09:23;21.50;;;11.07;;
66095;SDS011;53861;53.422;14.530;2022-07-23T00:11:51;34.67;;;12.05;;
66095;SDS011;53861;53.422;14.530;2022-07-23T00:14:19;28.48;;;11.02;;
66095;SDS011;53861;53.422;14.530;2022-07-23T00:16:48;22.67;;;11.30;;
66095;SDS011;53861;53.422;14.530;2022-07-23T00:19:16;28.52;;;11.20;;
66095;SDS011;53861;53.422;14.530;2022-07-23T00:24:16;31.00;;;10.63;;
66095;SDS011;53861;53.422;14.530;2022-07-23T00:26:44;30.88;;;10.88;;
66095;SDS011;53861;53.422;14.530;2022-07-23T00:29:11;26.55;;;11.10;;
66095;SDS011;53861;53.422;14.530;2022-07-23T00:31:39;23.25;;;10.60;;
66095;SDS011;53861;53.422;14.530;2022-07-23T00:34:08;23.77;;;10.77;;
66095;SDS011;53861;53.422;14.530;2022-07-23T00:36:35;27.80;;;11.00;;
66095;SDS011;53861;53.422;14.530;2022-07-23T00:39:03;26.02;;;10.75;;
66095;SDS011;53861;53.422;14.530;2022-07-23T00:41:31;27.55;;;11.07;;
66095;SDS011;53861;53.422;14.530;2022-07-23T00:44:13;30.33;;;10.18;;
66095;SDS011;53861;53.422;14.530;2022-07-23T00:46:44;29.30;;;11.30;;
66095;SDS011;53861;53.422;14.530;2022-07-23T00:49:14;24.33;;;11.43;;
66095;SDS011;53861;53.422;14.530;2022-07-23T00:51:41;26.67;;;11.30;;
66095;SDS011;53861;53.422;14.530;2022-07-23T00:54:09;29.83;;;10.32;;
66095;SDS011;53861;53.422;14.530;2022-07-23T00:56:37;24.48;;;11.02;;
66095;SDS011;53861;53.422;14.530;2022-07-23T00:59:06;29.70;;;10.93;;
66095;SDS011;53861;53.422;14.530;2022-07-23T01:01:34;22.25;;;10.18;;
66095;SDS011;53861;53.422;14.530;2022-07-23T01:04:02;26.15;;;11.13;;
66095;SDS011;53861;53.422;14.530;2022-07-23T01:06:31;26.00;;;11.88;;
66095;SDS011;53861;53.422;14.530;2022-07-23T01:09:02;29.92;;;11.40;;
66095;SDS011;53861;53.422;14.530;2022-07-23T01:11:31;23.73;;;10.93;;
66095;SDS011;53861;53.422;14.530;2022-07-23T01:14:07;25.77;;;10.15;;
66095;SDS011;53861;53.422;14.530;2022-07-23T01:16:36;30.25;;;10.27;;
66095;SDS011;53861;53.422;14.530;2022-07-23T01:19:03;22.45;;;10.07;;
66095;SDS011;53861;53.422;14.530;2022-07-23T01:21:34;23.80;;;10.30;;
66095;SDS011;53861;53.422;14.530;2022-07-23T01:24:05;24.60;;;10.70;;
66095;SDS011;53861;53.422;14.530;2022-07-23T01:26:34;23.38;;;10.20;;
66095;SDS011;53861;53.422;14.530;2022-07-23T01:29:02;25.35;;;9.40;;
66095;SDS011;53861;53.422;14.530;2022-07-23T01:31:31;22.42;;;10.10;;
66095;SDS011;53861;53.422;14.530;2022-07-23T01:33:59;25.13;;;10.52;;
66095;SDS011;53861;53.422;14.530;2022-07-23T01:36:27;26.05;;;10.75;;
66095;SDS011;53861;53.422;14.530;2022-07-23T01:38:54;20.60;;;9.05;;
66095;SDS011;53861;53.422;14.530;2022-07-23T01:41:24;23.23;;;9.40;;
66095;SDS011;53861;53.422;14.530;2022-07-23T01:43:56;22.30;;;8.98;;
66095;SDS011;53861;53.422;14.530;2022-07-23T01:46:24;21.15;;;8.80;;
66095;SDS011;53861;53.422;14.530;2022-07-23T01:48:51;22.88;;;9.20;;
66095;SDS011;53861;53.422;14.530;2022-07-23T01:51:19;27.98;;;9.52;;
66095;SDS011;53861;53.422;14.530;2022-07-23T01:53:46;28.25;;;9.40;;
66095;SDS011;53861;53.422;14.530;2022-07-23T01:56:14;22.02;;;9.43;;
66095;SDS011;53861;53.422;14.530;2022-07-23T01:58:43;27.30;;;9.88;;
66095;SDS011;53861;53.422;14.530;2022-07-23T02:01:11;29.42;;;9.20;;
66095;SDS011;53861;53.422;14.530;2022-07-23T02:03:38;25.60;;;9.50;;
66095;SDS011;53861;53.422;14.530;2022-07-23T02:06:05;19.70;;;9.38;;
66095;SDS011;53861;53.422;14.530;2022-07-23T02:08:33;24.33;;;8.85;;
66095;SDS011;53861;53.422;14.530;2022-07-23T02:11:00;18.98;;;8.55;;
66095;SDS011;53861;53.422;14.530;2022-07-23T02:13:28;18.63;;;8.15;;
66095;SDS011;53861;53.422;14.530;2022-07-23T02:15:57;20.08;;;8.50;;
66095;SDS011;53861;53.422;14.530;2022-07-23T02:18:24;21.65;;;7.90;;
66095;SDS011;53861;53.422;14.530;2022-07-23T02:20:52;24.10;;;8.10;;
66095;SDS011;53861;53.422;14.530;2022-07-23T02:23:19;16.42;;;7.47;;
66095;SDS011;53861;53.422;14.530;2022-07-23T02:25:47;20.63;;;8.15;;
66095;SDS011;53861;53.422;14.530;2022-07-23T02:28:15;22.40;;;7.68;;
66095;SDS011;53861;53.422;14.530;2022-07-23T02:30:43;42.22;;;16.73;;
66095;SDS011;53861;53.422;14.530;2022-07-23T02:33:12;24.85;;;11.05;;
66095;SDS011;53861;53.422;14.530;2022-07-23T02:35:39;22.73;;;9.15;;
66095;SDS011;53861;53.422;14.530;2022-07-23T02:38:07;16.42;;;6.57;;
66095;SDS011;53861;53.422;14.530;2022-07-23T02:40:34;20.10;;;7.50;;
66095;SDS011;53861;53.422;14.530;2022-07-23T02:43:02;17.52;;;6.72;;
66095;SDS011;53861;53.422;14.530;2022-07-23T02:45:29;17.10;;;7.25;;
66095;SDS011;53861;53.422;14.530;2022-07-23T02:47:57;20.80;;;6.68;;
66095;SDS011;53861;53.422;14.530;2022-07-23T02:50:26;20.85;;;7.40;;
66095;SDS011;53861;53.422;14.530;2022-07-23T02:52:53;17.92;;;7.00;;
66095;SDS011;53861;53.422;14.530;2022-07-23T02:55:21;21.23;;;7.10;;
66095;SDS011;53861;53.422;14.530;2022-07-23T02:57:48;19.45;;;7.57;;
66095;SDS011;53861;53.422;14.530;2022-07-23T03:00:16;18.65;;;7.68;;
66095;SDS011;53861;53.422;14.530;2022-07-23T03:02:43;15.93;;;7.20;;
66095;SDS011;53861;53.422;14.530;2022-07-23T03:05:11;21.35;;;7.00;;
66095;SDS011;53861;53.422;14.530;2022-07-23T03:07:40;25.90;;;8.40;;
66095;SDS011;53861;53.422;14.530;2022-07-23T03:10:07;16.85;;;6.78;;
66095;SDS011;53861;53.422;14.530;2022-07-23T03:12:35;18.95;;;6.65;;
66095;SDS011;53861;53.422;14.530;2022-07-23T03:15:03;18.15;;;5.97;;
66095;SDS011;53861;53.422;14.530;2022-07-23T03:17:31;19.27;;;6.57;;
66095;SDS011;53861;53.422;14.530;2022-07-23T03:19:59;14.27;;;6.20;;
66095;SDS011;53861;53.422;14.530;2022-07-23T03:22:26;13.85;;;5.70;;
66095;SDS011;53861;53.422;14.530;2022-07-23T03:24:55;15.90;;;5.63;;
66095;SDS011;53861;53.422;14.530;2022-07-23T03:27:23;17.98;;;6.20;;
66095;SDS011;53861;53.422;14.530;2022-07-23T03:29:52;46.80;;;14.07;;
66095;SDS011;53861;53.422;14.530;2022-07-23T03:32:21;17.92;;;6.47;;
66095;SDS011;53861;53.422;14.530;2022-07-23T03:34:49;19.98;;;6.10;;
66095;SDS011;53861;53.422;14.530;2022-07-23T03:37:18;20.13;;;5.60;;
66095;SDS011;53861;53.422;14.530;2022-07-23T03:39:46;21.13;;;6.20;;
66095;SDS011;53861;53.422;14.530;2022-07-23T03:42:15;22.60;;;6.65;;
66095;SDS011;53861;53.422;14.530;2022-07-23T03:44:42;14.60;;;5.32;;
66095;SDS011;53861;53.422;14.530;2022-07-23T03:47:10;19.92;;;5.93;;
66095;SDS011;53861;53.422;14.530;2022-07-23T03:49:38;14.20;;;5.50;;
66095;SDS011;53861;53.422;14.530;2022-07-23T03:52:05;19.05;;;5.68;;
66095;SDS011;53861;53.422;14.530;2022-07-23T03:54:33;13.38;;;5.13;;
66095;SDS011;53861;53.422;14.530;2022-07-23T03:57:00;15.38;;;4.97;;
66095;SDS011;53861;53.422;14.530;2022-07-23T03:59:29;17.08;;;5.40;;
66095;SDS011;53861;53.422;14.530;2022-07-23T04:01:57;12.52;;;5.35;;
66095;SDS011;53861;53.422;14.530;2022-07-23T04:04:24;14.23;;;5.28;;
66095;SDS011;53861;53.422;14.530;2022-07-23T04:06:52;17.08;;;5.50;;
66095;SDS011;53861;53.422;14.530;2022-07-23T04:09:20;13.43;;;5.35;;
66095;SDS011;53861;53.422;14.530;2022-07-23T04:11:49;15.10;;;5.43;;
66095;SDS011;53861;53.422;14.530;2022-07-23T04:14:17;14.55;;;4.97;;
66095;SDS011;53861;53.422;14.530;2022-07-23T04:16:46;15.20;;;5.18;;
66095;SDS011;53861;53.422;14.530;2022-07-23T04:19:13;14.45;;;5.72;;
66095;SDS011;53861;53.422;14.530;2022-07-23T04:21:40;18.33;;;5.32;;
66095;SDS011;53861;53.422;14.530;2022-07-23T04:24:08;18.75;;;5.80;;
66095;SDS011;53861;53.422;14.530;2022-07-23T04:26:35;16.13;;;5.72;;
66095;SDS011;53861;53.422;14.530;2022-07-23T04:29:03;12.88;;;5.68;;
66095;SDS011;53861;53.422;14.530;2022-07-23T04:31:31;18.17;;;5.78;;
66095;SDS011;53861;53.422;14.530;2022-07-23T04:34:00;19.45;;;5.70;;
66095;SDS011;53861;53.422;14.530;2022-07-23T04:36:27;14.05;;;5.75;;
66095;SDS011;53861;53.422;14.530;2022-07-23T04:38:55;11.48;;;5.50;;
66095;SDS011;53861;53.422;14.530;2022-07-23T04:41:22;13.90;;;4.95;;
66095;SDS011;53861;53.422;14.530;2022-07-23T04:43:50;16.48;;;5.35;;
66095;SDS011;53861;53.422;14.530;2022-07-23T04:46:18;15.90;;;5.38;;
66095;SDS011;53861;53.422;14.530;2022-07-23T04:48:46;12.13;;;5.22;;
66095;SDS011;53861;53.422;14.530;2022-07-23T04:51:14;12.70;;;5.00;;
66095;SDS011;53861;53.422;14.530;2022-07-23T04:53:42;14.13;;;5.38;;
66095;SDS011;53861;53.422;14.530;2022-07-23T04:56:09;19.00;;;5.43;;
66095;SDS011;53861;53.422;14.530;2022-07-23T04:58:37;12.80;;;5.30;;
66095;SDS011;53861;53.422;14.530;2022-07-23T05:01:04;15.48;;;5.40;;
66095;SDS011;53861;53.422;14.530;2022-07-23T05:03:31;10.18;;;4.70;;
66095;SDS011;53861;53.422;14.530;2022-07-23T05:05:59;12.80;;;5.20;;
66095;SDS011;53861;53.422;14.530;2022-07-23T05:08:28;13.65;;;5.22;;
66095;SDS011;53861;53.422;14.530;2022-07-23T05:10:56;14.35;;;5.18;;
66095;SDS011;53861;53.422;14.530;2022-07-23T05:13:23;13.55;;;5.13;;
66095;SDS011;53861;53.422;14.530;2022-07-23T05:15:50;13.25;;;4.97;;
66095;SDS011;53861;53.422;14.530;2022-07-23T05:18:18;13.40;;;5.05;;
66095;SDS011;53861;53.422;14.530;2022-07-23T05:20:46;16.85;;;5.20;;
66095;SDS011;53861;53.422;14.530;2022-07-23T05:23:13;14.65;;;5.30;;
66095;SDS011;53861;53.422;14.530;2022-07-23T05:25:42;12.43;;;4.43;;
66095;SDS011;53861;53.422;14.530;2022-07-23T05:28:10;16.23;;;4.63;;
66095;SDS011;53861;53.422;14.530;2022-07-23T05:30:37;10.48;;;4.07;;
66095;SDS011;53861;53.422;14.530;2022-07-23T05:33:05;10.07;;;4.10;;
66095;SDS011;53861;53.422;14.530;2022-07-23T05:35:33;15.07;;;3.80;;
66095;SDS011;53861;53.422;14.530;2022-07-23T05:38:01;11.18;;;3.75;;
66095;SDS011;53861;53.422;14.530;2022-07-23T05:40:28;9.98;;;3.42;;
66095;SDS011;53861;53.422;14.530;2022-07-23T05:42:57;10.40;;;4.10;;
66095;SDS011;53861;53.422;14.530;2022-07-23T05:45:25;17.92;;;4.07;;
66095;SDS011;53861;53.422;14.530;2022-07-23T05:47:53;11.98;;;4.20;;
66095;SDS011;53861;53.422;14.530;2022-07-23T05:50:20;14.82;;;4.55;;
66095;SDS011;53861;53.422;14.530;2022-07-23T05:52:48;11.77;;;4.22;;
66095;SDS011;53861;53.422;14.530;2022-07-23T05:55:16;11.90;;;3.80;;
66095;SDS011;53861;53.422;14.530;2022-07-23T05:57:43;13.02;;;4.47;;
66095;SDS011;53861;53.422;14.530;2022-07-23T06:00:12;11.38;;;3.65;;
66095;SDS011;53861;53.422;14.530;2022-07-23T06:02:40;14.63;;;3.97;;
66095;SDS011;53861;53.422;14.530;2022-07-23T06:05:08;11.52;;;3.70;;
66095;SDS011;53861;53.422;14.530;2022-07-23T06:07:36;13.23;;;3.95;;
66095;SDS011;53861;53.422;14.530;2022-07-23T06:10:04;9.68;;;3.10;;
66095;SDS011;53861;53.422;14.530;2022-07-23T06:12:32;8.63;;;3.42;;
66095;SDS011;53861;53.422;14.530;2022-07-23T06:15:00;10.88;;;3.03;;
66095;SDS011;53861;53.422;14.530;2022-07-23T06:17:29;9.27;;;3.45;;
66095;SDS011;53861;53.422;14.530;2022-07-23T06:19:57;8.93;;;4.13;;
66095;SDS011;53861;53.422;14.530;2022-07-23T06:22:25;7.90;;;3.42;;
66095;SDS011;53861;53.422;14.530;2022-07-23T06:24:53;10.20;;;3.60;;
66095;SDS011;53861;53.422;14.530;2022-07-23T06:27:21;10.27;;;3.08;;
66095;SDS011;53861;53.422;14.530;2022-07-23T06:29:48;8.05;;;3.40;;
66095;SDS011;53861;53.422;14.530;2022-07-23T06:32:16;10.48;;;3.72;;
66095;SDS011;53861;53.422;14.530;2022-07-23T06:34:45;10.23;;;3.75;;
66095;SDS011;53861;53.422;14.530;2022-07-23T06:37:12;9.20;;;3.90;;
66095;SDS011;53861;53.422;14.530;2022-07-23T06:39:40;11.18;;;3.47;;
66095;SDS011;53861;53.422;14.530;2022-07-23T06:42:07;8.20;;;3.65;;
66095;SDS011;53861;53.422;14.530;2022-07-23T06:44:36;12.70;;;4.22;;
66095;SDS011;53861;53.422;14.530;2022-07-23T06:47:03;13.10;;;4.20;;
66095;SDS011;53861;53.422;14.530;2022-07-23T06:49:31;13.88;;;4.88;;
66095;SDS011;53861;53.422;14.530;2022-07-23T06:51:59;11.23;;;4.15;;
66095;SDS011;53861;53.422;14.530;2022-07-23T06:54:27;14.02;;;4.50;;
66095;SDS011;53861;53.422;14.530;2022-07-23T06:56:54;10.45;;;4.47;;
66095;SDS011;53861;53.422;14.530;2022-07-23T06:59:22;14.07;;;5.15;;
66095;SDS011;53861;53.422;14.530;2022-07-23T07:01:50;12.43;;;4.45;;
66095;SDS011;53861;53.422;14.530;2022-07-23T07:04:17;18.58;;;5.22;;
66095;SDS011;53861;53.422;14.530;2022-07-23T07:06:45;11.85;;;4.95;;
66095;SDS011;53861;53.422;14.530;2022-07-23T07:09:14;15.95;;;4.93;;
66095;SDS011;53861;53.422;14.530;2022-07-23T07:11:41;11.20;;;4.53;;
66095;SDS011;53861;53.422;14.530;2022-07-23T07:14:08;9.38;;;4.90;;
66095;SDS011;53861;53.422;14.530;2022-07-23T07:16:36;16.92;;;6.10;;
66095;SDS011;53861;53.422;14.530;2022-07-23T07:19:03;14.13;;;4.30;;
66095;SDS011;53861;53.422;14.530;2022-07-23T07:21:31;13.75;;;4.70;;
66095;SDS011;53861;53.422;14.530;2022-07-23T07:23:59;12.30;;;4.63;;
66095;SDS011;53861;53.422;14.530;2022-07-23T07:26:28;13.10;;;4.90;;
66095;SDS011;53861;53.422;14.530;2022-07-23T07:28:56;11.18;;;4.55;;
66095;SDS011;53861;53.422;14.530;2022-07-23T07:31:24;10.63;;;4.70;;
66095;SDS011;53861;53.422;14.530;2022-07-23T07:33:51;12.35;;;5.05;;
66095;SDS011;53861;53.422;14.530;2022-07-23T07:36:22;9.52;;;4.30;;
66095;SDS011;53861;53.422;14.530;2022-07-23T07:38:50;10.27;;;4.63;;
66095;SDS011;53861;53.422;14.530;2022-07-23T07:41:18;9.88;;;4.57;;
66095;SDS011;53861;53.422;14.530;2022-07-23T07:43:50;12.48;;;4.95;;
66095;SDS011;53861;53.422;14.530;2022-07-23T07:46:18;9.15;;;4.25;;
66095;SDS011;53861;53.422;14.530;2022-07-23T07:48:46;14.45;;;4.60;;
66095;SDS011;53861;53.422;14.530;2022-07-23T07:51:13;10.32;;;4.60;;
66095;SDS011;53861;53.422;14.530;2022-07-23T07:53:41;9.40;;;4.57;;
66095;SDS011;53861;53.422;14.530;2022-07-23T07:56:09;10.25;;;4.60;;
66095;SDS011;53861;53.422;14.530;2022-07-23T07:58:36;12.63;;;5.30;;
66095;SDS011;53861;53.422;14.530;2022-07-23T08:01:06;14.52;;;5.30;;
66095;SDS011;53861;53.422;14.530;2022-07-23T08:03:36;12.43;;;4.85;;
66095;SDS011;53861;53.422;14.530;2022-07-23T08:06:03;12.32;;;4.93;;
66095;SDS011;53861;53.422;14.530;2022-07-23T08:08:31;15.10;;;5.05;;
66095;SDS011;53861;53.422;14.530;2022-07-23T08:10:59;11.23;;;4.93;;
66095;SDS011;53861;53.422;14.530;2022-07-23T08:13:26;11.77;;;4.70;;
66095;SDS011;53861;53.422;14.530;2022-07-23T08:15:54;11.13;;;5.00;;
66095;SDS011;53861;53.422;14.530;2022-07-23T08:18:23;12.65;;;4.80;;
66095;SDS011;53861;53.422;14.530;2022-07-23T08:20:50;12.57;;;5.25;;
66095;SDS011;53861;53.422;14.530;2022-07-23T08:23:18;14.32;;;5.03;;
66095;SDS011;53861;53.422;14.530;2022-07-23T08:25:45;20.00;;;6.43;;
66095;SDS011;53861;53.422;14.530;2022-07-23T08:28:13;15.68;;;4.80;;
66095;SDS011;53861;53.422;14.530;2022-07-23T08:30:42;12.65;;;4.70;;
66095;SDS011;53861;53.422;14.530;2022-07-23T08:33:11;11.27;;;4.90;;
66095;SDS011;53861;53.422;14.530;2022-07-23T08:35:42;14.30;;;4.97;;
66095;SDS011;53861;53.422;14.530;2022-07-23T08:38:13;12.73;;;5.78;;
66095;SDS011;53861;53.422;14.530;2022-07-23T08:40:42;19.48;;;5.53;;
66095;SDS011;53861;53.422;14.530;2022-07-23T08:43:13;14.45;;;4.85;;
66095;SDS011;53861;53.422;14.530;2022-07-23T08:45:44;15.73;;;4.53;;
66095;SDS011;53861;53.422;14.530;2022-07-23T08:48:14;13.27;;;4.38;;
66095;SDS011;53861;53.422;14.530;2022-07-23T08:50:45;20.05;;;5.00;;
66095;SDS011;53861;53.422;14.530;2022-07-23T08:53:14;11.88;;;4.50;;
66095;SDS011;53861;53.422;14.530;2022-07-23T08:55:43;11.77;;;4.30;;
66095;SDS011;53861;53.422;14.530;2022-07-23T08:58:11;8.63;;;4.07;;
66095;SDS011;53861;53.422;14.530;2022-07-23T09:00:45;8.90;;;4.20;;
66095;SDS011;53861;53.422;14.530;2022-07-23T09:03:14;11.55;;;4.90;;
66095;SDS011;53861;53.422;14.530;2022-07-23T09:05:44;12.00;;;4.03;;
66095;SDS011;53861;53.422;14.530;2022-07-23T09:08:13;9.95;;;4.30;;
66095;SDS011;53861;53.422;14.530;2022-07-23T09:10:46;13.05;;;5.38;;
66095;SDS011;53861;53.422;14.530;2022-07-23T09:13:23;15.45;;;4.50;;
66095;SDS011;53861;53.422;14.530;2022-07-23T09:15:53;14.13;;;4.45;;
66095;SDS011;53861;53.422;14.530;2022-07-23T09:18:28;15.80;;;5.00;;
66095;SDS011;53861;53.422;14.530;2022-07-23T09:21:06;10.60;;;4.00;;
66095;SDS011;53861;53.422;14.530;2022-07-23T09:23:39;12.73;;;4.13;;
66095;SDS011;53861;53.422;14.530;2022-07-23T09:29:01;14.60;;;3.75;;
66095;SDS011;53861;53.422;14.530;2022-07-23T09:31:35;14.57;;;3.83;;
66095;SDS011;53861;53.422;14.530;2022-07-23T09:34:11;10.48;;;4.10;;
66095;SDS011;53861;53.422;14.530;2022-07-23T09:36:42;10.15;;;4.10;;
66095;SDS011;53861;53.422;14.530;2022-07-23T09:39:10;8.75;;;3.83;;
66095;SDS011;53861;53.422;14.530;2022-07-23T09:41:39;12.35;;;4.03;;
66095;SDS011;53861;53.422;14.530;2022-07-23T09:44:10;9.90;;;3.67;;
66095;SDS011;53861;53.422;14.530;2022-07-23T09:46:43;10.13;;;4.00;;
66095;SDS011;53861;53.422;14.530;2022-07-23T09:49:16;10.30;;;3.88;;
66095;SDS011;53861;53.422;14.530;2022-07-23T09:51:51;10.57;;;3.63;;
66095;SDS011;53861;53.422;14.530;2022-07-23T09:54:21;9.63;;;3.80;;
66095;SDS011;53861;53.422;14.530;2022-07-23T09:56:52;8.25;;;3.80;;
66095;SDS011;53861;53.422;14.530;2022-07-23T09:59:22;9.20;;;3.50;;
66095;SDS011;53861;53.422;14.530;2022-07-23T10:01:52;7.37;;;3.87;;
66095;SDS011;53861;53.422;14.530;2022-07-23T10:04:21;10.50;;;3.78;;
66095;SDS011;53861;53.422;14.530;2022-07-23T10:06:52;6.57;;;3.30;;
66095;SDS011;53861;53.422;14.530;2022-07-23T10:09:22;7.63;;;3.05;;
66095;SDS011;53861;53.422;14.530;2022-07-23T10:11:57;8.00;;;3.40;;
66095;SDS011;53861;53.422;14.530;2022-07-23T10:14:39;12.32;;;3.08;;
66095;SDS011;53861;53.422;14.530;2022-07-23T10:17:07;8.90;;;3.70;;
66095;SDS011;53861;53.422;14.530;2022-07-23T10:19:35;8.13;;;3.28;;
66095;SDS011;53861;53.422;14.530;2022-07-23T10:22:06;7.25;;;3.60;;
66095;SDS011;53861;53.422;14.530;2022-07-23T10:24:41;8.77;;;3.03;;
66095;SDS011;53861;53.422;14.530;2022-07-23T10:30:28;9.10;;;2.65;;
66095;SDS011;53861;53.422;14.530;2022-07-23T10:33:05;10.50;;;2.88;;
66095;SDS011;53861;53.422;14.530;2022-07-23T10:35:43;5.17;;;2.60;;
66095;SDS011;53861;53.422;14.530;2022-07-23T10:38:18;6.82;;;2.60;;
66095;SDS011;53861;53.422;14.530;2022-07-23T10:40:54;7.00;;;2.60;;
66095;SDS011;53861;53.422;14.530;2022-07-23T10:45:51;5.07;;;2.58;;
66095;SDS011;53861;53.422;14.530;2022-07-23T10:48:20;10.48;;;2.47;;
66095;SDS011;53861;53.422;14.530;2022-07-23T10:59:30;4.13;;;2.35;;
66095;SDS011;53861;53.422;14.530;2022-07-23T11:04:52;4.45;;;2.20;;
66095;SDS011;53861;53.422;14.530;2022-07-23T11:07:20;6.22;;;2.25;;
66095;SDS011;53861;53.422;14.530;2022-07-23T11:09:49;4.60;;;2.15;;
66095;SDS011;53861;53.422;14.530;2022-07-23T11:12:33;8.20;;;2.40;;
66095;SDS011;53861;53.422;14.530;2022-07-23T11:15:06;4.57;;;2.03;;
66095;SDS011;53861;53.422;14.530;2022-07-23T11:17:36;4.82;;;2.20;;
66095;SDS011;53861;53.422;14.530;2022-07-23T11:22:51;6.10;;;1.92;;
66095;SDS011;53861;53.422;14.530;2022-07-23T11:25:35;5.18;;;2.20;;
66095;SDS011;53861;53.422;14.530;2022-07-23T11:28:10;7.78;;;2.03;;
66095;SDS011;53861;53.422;14.530;2022-07-23T11:30:42;5.78;;;2.00;;
66095;SDS011;53861;53.422;14.530;2022-07-23T11:33:17;9.27;;;2.50;;
66095;SDS011;53861;53.422;14.530;2022-07-23T11:36:01;4.60;;;2.25;;
66095;SDS011;53861;53.422;14.530;2022-07-23T11:38:31;6.13;;;2.17;;
66095;SDS011;53861;53.422;14.530;2022-07-23T11:41:00;3.40;;;1.80;;
66095;SDS011;53861;53.422;14.530;2022-07-23T11:43:28;7.30;;;2.08;;
66095;SDS011;53861;53.422;14.530;2022-07-23T11:45:57;6.28;;;2.10;;
66095;SDS011;53861;53.422;14.530;2022-07-23T11:48:27;5.25;;;1.90;;
66095;SDS011;53861;53.422;14.530;2022-07-23T11:50:56;8.07;;;1.90;;
66095;SDS011;53861;53.422;14.530;2022-07-23T11:53:25;6.28;;;2.05;;
66095;SDS011;53861;53.422;14.530;2022-07-23T11:56:03;3.50;;;1.60;;
66095;SDS011;53861;53.422;14.530;2022-07-23T11:58:36;3.38;;;1.83;;
66095;SDS011;53861;53.422;14.530;2022-07-23T12:01:05;4.22;;;1.63;;
66095;SDS011;53861;53.422;14.530;2022-07-23T12:03:32;3.50;;;1.63;;
66095;SDS011;53861;53.422;14.530;2022-07-23T12:06:00;4.30;;;1.77;;
66095;SDS011;53861;53.422;14.530;2022-07-23T12:08:28;3.90;;;1.67;;
66095;SDS011;53861;53.422;14.530;2022-07-23T12:10:55;6.95;;;1.70;;
66095;SDS011;53861;53.422;14.530;2022-07-23T12:13:25;3.35;;;1.67;;
66095;SDS011;53861;53.422;14.530;2022-07-23T12:15:53;5.10;;;1.80;;
66095;SDS011;53861;53.422;14.530;2022-07-23T12:18:24;6.00;;;1.77;;
66095;SDS011;53861;53.422;14.530;2022-07-23T12:20:53;4.15;;;1.80;;
66095;SDS011;53861;53.422;14.530;2022-07-23T12:23:24;5.15;;;1.80;;
66095;SDS011;53861;53.422;14.530;2022-07-23T12:25:53;4.47;;;1.80;;
66095;SDS011;53861;53.422;14.530;2022-07-23T12:28:29;4.30;;;1.90;;
66095;SDS011;53861;53.422;14.530;2022-07-23T12:30:58;5.68;;;1.80;;
66095;SDS011;53861;53.422;14.530;2022-07-23T12:33:30;4.70;;;2.13;;
66095;SDS011;53861;53.422;14.530;2022-07-23T12:36:00;4.90;;;2.00;;
66095;SDS011;53861;53.422;14.530;2022-07-23T12:38:36;6.78;;;2.10;;
66095;SDS011;53861;53.422;14.530;2022-07-23T12:41:06;5.28;;;2.00;;
66095;SDS011;53861;53.422;14.530;2022-07-23T12:43:35;4.63;;;2.53;;
66095;SDS011;53861;53.422;14.530;2022-07-23T12:46:08;4.72;;;1.70;;
66095;SDS011;53861;53.422;14.530;2022-07-23T12:48:50;4.30;;;1.90;;
66095;SDS011;53861;53.422;14.530;2022-07-23T12:51:20;8.02;;;3.80;;
66095;SDS011;53861;53.422;14.530;2022-07-23T12:53:49;5.53;;;2.00;;
66095;SDS011;53861;53.422;14.530;2022-07-23T12:56:19;6.18;;;2.00;;
66095;SDS011;53861;53.422;14.530;2022-07-23T12:58:52;3.95;;;1.77;;
66095;SDS011;53861;53.422;14.530;2022-07-23T13:01:24;3.63;;;2.03;;
66095;SDS011;53861;53.422;14.530;2022-07-23T13:04:01;3.38;;;1.90;;
66095;SDS011;53861;53.422;14.530;2022-07-23T13:06:31;4.60;;;1.85;;
66095;SDS011;53861;53.422;14.530;2022-07-23T13:09:00;4.50;;;1.70;;
66095;SDS011;53861;53.422;14.530;2022-07-23T13:11:29;8.95;;;2.10;;
66095;SDS011;53861;53.422;14.530;2022-07-23T13:13:59;4.97;;;1.90;;
66095;SDS011;53861;53.422;14.530;2022-07-23T13:16:27;3.17;;;1.55;;
66095;SDS011;53861;53.422;14.530;2022-07-23T13:18:55;4.75;;;1.70;;
66095;SDS011;53861;53.422;14.530;2022-07-23T13:21:24;3.35;;;1.70;;
66095;SDS011;53861;53.422;14.530;2022-07-23T13:23:52;4.32;;;1.83;;
66095;SDS011;53861;53.422;14.530;2022-07-23T13:26:19;5.88;;;1.60;;
66095;SDS011;53861;53.422;14.530;2022-07-23T13:28:47;3.58;;;1.58;;
66095;SDS011;53861;53.422;14.530;2022-07-23T13:31:18;3.55;;;1.40;;
66095;SDS011;53861;53.422;14.530;2022-07-23T13:33:46;5.07;;;1.60;;
66095;SDS011;53861;53.422;14.530;2022-07-23T13:36:16;6.43;;;1.58;;
66095;SDS011;53861;53.422;14.530;2022-07-23T13:38:43;4.80;;;1.83;;
66095;SDS011;53861;53.422;14.530;2022-07-23T13:41:11;3.15;;;1.40;;
66095;SDS011;53861;53.422;14.530;2022-07-23T13:43:38;3.65;;;1.50;;
66095;SDS011;53861;53.422;14.530;2022-07-23T13:46:07;3.08;;;1.48;;
66095;SDS011;53861;53.422;14.530;2022-07-23T13:48:39;4.60;;;1.60;;
66095;SDS011;53861;53.422;14.530;2022-07-23T13:51:07;3.92;;;1.38;;
66095;SDS011;53861;53.422;14.530;2022-07-23T13:53:35;3.08;;;1.50;;
66095;SDS011;53861;53.422;14.530;2022-07-23T13:56:02;4.57;;;1.70;;
66095;SDS011;53861;53.422;14.530;2022-07-23T13:58:30;2.63;;;1.25;;
66095;SDS011;53861;53.422;14.530;2022-07-23T14:00:57;4.43;;;1.55;;
66095;SDS011;53861;53.422;14.530;2022-07-23T14:03:25;4.80;;;1.45;;
66095;SDS011;53861;53.422;14.530;2022-07-23T14:05:54;5.65;;;1.70;;
66095;SDS011;53861;53.422;14.530;2022-07-23T14:08:22;4.85;;;2.15;;
66095;SDS011;53861;53.422;14.530;2022-07-23T14:10:50;3.35;;;1.40;;
66095;SDS011;53861;53.422;14.530;2022-07-23T14:13:17;3.67;;;1.30;;
66095;SDS011;53861;53.422;14.530;2022-07-23T14:15:45;3.67;;;1.60;;
66095;SDS011;53861;53.422;14.530;2022-07-23T14:18:12;4.38;;;1.52;;
66095;SDS011;53861;53.422;14.530;2022-07-23T14:20:40;2.78;;;1.50;;
66095;SDS011;53861;53.422;14.530;2022-07-23T14:23:09;6.35;;;1.35;;
66095;SDS011;53861;53.422;14.530;2022-07-23T14:25:37;3.83;;;1.30;;
66095;SDS011;53861;53.422;14.530;2022-07-23T14:28:06;4.00;;;1.40;;
66095;SDS011;53861;53.422;14.530;2022-07-23T14:30:33;6.05;;;3.65;;
66095;SDS011;53861;53.422;14.530;2022-07-23T14:33:01;5.07;;;1.95;;
66095;SDS011;53861;53.422;14.530;2022-07-23T14:35:29;8.27;;;1.55;;
66095;SDS011;53861;53.422;14.530;2022-07-23T14:37:57;4.40;;;1.70;;
66095;SDS011;53861;53.422;14.530;2022-07-23T14:40:26;6.13;;;2.60;;
66095;SDS011;53861;53.422;14.530;2022-07-23T14:42:53;6.00;;;1.50;;
66095;SDS011;53861;53.422;14.530;2022-07-23T14:45:21;3.45;;;1.67;;
66095;SDS011;53861;53.422;14.530;2022-07-23T14:47:48;3.88;;;1.58;;
66095;SDS011;53861;53.422;14.530;2022-07-23T14:50:16;4.95;;;1.70;;
66095;SDS011;53861;53.422;14.530;2022-07-23T14:52:44;5.50;;;1.40;;
66095;SDS011;53861;53.422;14.530;2022-07-23T14:55:13;4.40;;;1.38;;
66095;SDS011;53861;53.422;14.530;2022-07-23T14:57:44;6.80;;;1.60;;
66095;SDS011;53861;53.422;14.530;2022-07-23T15:00:12;5.35;;;1.50;;
66095;SDS011;53861;53.422;14.530;2022-07-23T15:02:43;8.80;;;2.40;;